createdAt,value
2023-02-27T00:01:12.854Z,1.63
2023-02-27T00:03:42.392Z,1.40
2023-02-27T00:06:11.992Z,1.80
2023-02-27T00:08:41.568Z,1.20
2023-02-27T00:11:11.084Z,1.90
2023-02-27T00:13:43.220Z,1.60
2023-02-27T00:16:13.072Z,1.37
2023-02-27T00:18:42.878Z,2.30
2023-02-27T00:21:12.461Z,2.10
2023-02-27T00:23:41.918Z,2.03
2023-02-27T00:26:11.506Z,1.80
2023-02-27T00:28:43.798Z,1.73
2023-02-27T00:31:13.489Z,1.40
2023-02-27T00:33:43.031Z,2.00
2023-02-27T00:36:12.560Z,2.10
2023-02-27T00:38:42.145Z,1.47
2023-02-27T00:41:11.801Z,1.80
2023-02-27T00:43:43.972Z,2.00
2023-02-27T00:46:14.475Z,1.77
2023-02-27T00:48:44.076Z,1.90
2023-02-27T00:51:13.571Z,1.40
2023-02-27T00:53:43.128Z,2.00
2023-02-27T00:56:14.844Z,1.90
2023-02-27T00:58:47.118Z,1.77
2023-02-27T01:01:17.448Z,2.20
2023-02-27T01:03:47.082Z,1.80
2023-02-27T01:06:16.690Z,1.87
2023-02-27T01:08:46.313Z,1.70
2023-02-27T01:11:15.969Z,1.90
2023-02-27T01:13:48.188Z,2.43
2023-02-27T01:16:19.796Z,2.00
2023-02-27T01:18:49.393Z,1.93
2023-02-27T01:21:19.313Z,1.63
2023-02-27T01:23:48.807Z,2.13
2023-02-27T01:26:21.982Z,2.20
2023-02-27T01:28:54.119Z,2.40
2023-02-27T01:31:23.799Z,1.90
2023-02-27T01:33:53.317Z,2.50
2023-02-27T01:36:23.395Z,2.40
2023-02-27T01:38:52.920Z,2.47
2023-02-27T01:41:22.418Z,2.70
2023-02-27T01:44:04.700Z,2.40
2023-02-27T01:46:34.936Z,2.23
2023-02-27T01:49:06.672Z,1.87
2023-02-27T01:51:39.550Z,1.63
2023-02-27T01:54:10.641Z,2.47
2023-02-27T01:56:40.258Z,2.70
2023-02-27T01:59:13.765Z,2.50
2023-02-27T02:01:43.259Z,1.97
2023-02-27T02:04:16.089Z,2.00
2023-02-27T02:06:47.815Z,1.90
2023-02-27T02:09:18.940Z,2.70
2023-02-27T02:11:48.470Z,2.27
2023-02-27T02:14:23.421Z,1.73
2023-02-27T02:16:59.614Z,2.47
2023-02-27T02:19:40.002Z,2.47
2023-02-27T02:22:18.936Z,1.90
2023-02-27T02:25:16.456Z,1.90
2023-02-27T02:27:53.738Z,1.80
2023-02-27T02:30:41.261Z,2.47
2023-02-27T02:33:25.908Z,2.27
2023-02-27T02:36:10.462Z,1.80
2023-02-27T02:39:01.057Z,2.30
2023-02-27T02:41:37.065Z,1.93
2023-02-27T02:44:10.440Z,1.77
2023-02-27T02:46:44.802Z,2.03
2023-02-27T02:49:19.413Z,1.60
2023-02-27T02:51:51.968Z,2.07
2023-02-27T02:54:27.495Z,1.87
2023-02-27T02:57:03.146Z,1.83
2023-02-27T02:59:35.265Z,1.63
2023-02-27T03:02:06.484Z,1.93
2023-02-27T03:04:39.241Z,1.40
2023-02-27T03:07:12.939Z,2.17
2023-02-27T03:09:44.283Z,2.10
2023-02-27T03:12:19.252Z,1.73
2023-02-27T03:14:51.030Z,1.77
2023-02-27T03:17:23.050Z,1.83
2023-02-27T03:19:55.559Z,1.87
2023-02-27T03:22:27.134Z,1.97
2023-02-27T03:25:01.091Z,1.93
2023-02-27T03:27:35.589Z,1.83
2023-02-27T03:30:07.733Z,2.10
2023-02-27T03:32:39.512Z,1.80
2023-02-27T03:35:09.991Z,2.13
2023-02-27T03:37:44.273Z,1.93
2023-02-27T03:40:19.320Z,2.17
2023-02-27T03:42:55.510Z,1.80
2023-02-27T03:45:37.536Z,2.00
2023-02-27T03:48:09.153Z,1.93
2023-02-27T03:50:39.614Z,2.30
2023-02-27T03:53:11.172Z,2.17
2023-02-27T03:55:42.758Z,2.20
2023-02-27T03:58:15.097Z,1.80
2023-02-27T04:00:44.840Z,1.63
2023-02-27T04:03:14.622Z,2.00
2023-02-27T04:05:44.282Z,1.90
2023-02-27T04:08:21.287Z,2.00
2023-02-27T04:10:57.119Z,2.00
2023-02-27T04:13:40.370Z,2.03
2023-02-27T04:16:26.154Z,1.80
2023-02-27T04:19:01.640Z,1.87
2023-02-27T04:21:33.500Z,1.73
2023-02-27T04:24:08.144Z,1.73
2023-02-27T04:26:40.837Z,1.70
2023-02-27T04:29:18.285Z,2.20
2023-02-27T04:31:50.970Z,1.83
2023-02-27T04:34:24.227Z,2.30
2023-02-27T04:36:56.407Z,1.90
2023-02-27T04:39:27.287Z,1.90
2023-02-27T04:42:00.101Z,2.23
2023-02-27T04:44:33.578Z,1.37
2023-02-27T04:47:04.380Z,1.87
2023-02-27T04:49:35.979Z,1.60
2023-02-27T04:52:07.967Z,1.83
2023-02-27T04:54:41.214Z,1.93
2023-02-27T04:57:11.816Z,1.37
2023-02-27T04:59:45.877Z,2.07
2023-02-27T05:02:17.362Z,1.97
2023-02-27T05:04:47.903Z,1.73
2023-02-27T05:07:20.096Z,1.90
2023-02-27T05:09:51.606Z,1.77
2023-02-27T05:12:23.861Z,1.63
2023-02-27T05:14:59.116Z,1.57
2023-02-27T05:17:29.872Z,2.27
2023-02-27T05:19:59.452Z,2.17
2023-02-27T05:22:33.658Z,1.93
2023-02-27T05:25:06.429Z,1.90
2023-02-27T05:27:41.347Z,2.17
2023-02-27T05:30:19.558Z,2.20
2023-02-27T05:32:51.874Z,1.70
2023-02-27T05:35:24.209Z,1.60
2023-02-27T05:37:56.042Z,2.03
2023-02-27T05:40:28.110Z,1.70
2023-02-27T05:43:01.225Z,1.90
2023-02-27T05:45:35.026Z,1.93
2023-02-27T05:48:06.453Z,2.00
2023-02-27T05:50:37.436Z,2.10
2023-02-27T05:53:08.249Z,1.90
2023-02-27T05:55:39.618Z,1.70
2023-02-27T05:58:11.413Z,1.70
2023-02-27T06:00:45.985Z,2.07
2023-02-27T06:03:15.625Z,1.83
2023-02-27T06:05:46.178Z,1.53
2023-02-27T06:08:15.736Z,1.80
2023-02-27T06:10:45.168Z,1.40
2023-02-27T06:13:15.114Z,1.70
2023-02-27T06:15:47.216Z,1.70
2023-02-27T06:18:17.148Z,1.83
2023-02-27T06:20:47.136Z,1.73
2023-02-27T06:23:17.290Z,1.83
2023-02-27T06:25:47.139Z,1.83
2023-02-27T06:28:16.598Z,1.83
2023-02-27T06:30:48.729Z,1.87
2023-02-27T06:33:18.297Z,1.77
2023-02-27T06:35:50.529Z,2.00
2023-02-27T06:38:20.120Z,1.57
2023-02-27T06:40:49.579Z,1.67
2023-02-27T06:43:19.142Z,1.73
2023-02-27T06:45:51.388Z,1.60
2023-02-27T06:48:20.932Z,1.63
2023-02-27T06:50:53.883Z,1.80
2023-02-27T06:53:23.559Z,1.53
2023-02-27T06:55:53.067Z,1.67
2023-02-27T06:58:24.877Z,1.87
2023-02-27T07:00:57.111Z,1.97
2023-02-27T07:03:26.709Z,1.70
2023-02-27T07:05:56.330Z,1.97
2023-02-27T07:08:25.882Z,1.97
2023-02-27T07:10:55.417Z,1.47
2023-02-27T07:13:24.878Z,1.90
2023-02-27T07:15:57.280Z,1.90
2023-02-27T07:18:27.286Z,1.90
2023-02-27T07:20:56.946Z,1.50
2023-02-27T07:23:26.529Z,2.17
2023-02-27T07:25:55.995Z,1.90
2023-02-27T07:28:25.569Z,1.80
2023-02-27T07:30:58.871Z,1.77
2023-02-27T07:33:28.497Z,1.73
2023-02-27T07:35:58.011Z,1.90
2023-02-27T07:38:28.980Z,1.90
2023-02-27T07:40:59.099Z,1.83
2023-02-27T07:43:28.877Z,2.00
2023-02-27T07:46:04.158Z,2.40
2023-02-27T07:48:33.809Z,2.00
2023-02-27T07:51:03.463Z,2.47
2023-02-27T07:53:33.014Z,1.93
2023-02-27T07:56:02.514Z,2.00
2023-02-27T07:58:32.157Z,2.00
2023-02-27T08:01:04.356Z,1.93
2023-02-27T08:03:33.948Z,1.77
2023-02-27T08:06:03.459Z,1.83
2023-02-27T08:08:33.215Z,1.77
2023-02-27T08:11:02.735Z,1.87
2023-02-27T08:13:59.014Z,2.00
2023-02-27T08:16:24.503Z,2.13
2023-02-27T08:18:54.406Z,1.97
2023-02-27T08:21:23.896Z,1.90
2023-02-27T08:23:53.352Z,1.93
2023-02-27T08:26:23.150Z,1.67
2023-02-27T08:28:52.644Z,2.00
2023-02-27T08:31:24.856Z,1.53
2023-02-27T08:34:07.803Z,1.60
2023-02-27T08:36:38.896Z,1.67
2023-02-27T08:39:08.359Z,1.37
2023-02-27T08:41:38.336Z,1.70
2023-02-27T08:44:07.902Z,1.73
2023-02-27T08:46:40.044Z,1.70
2023-02-27T08:49:09.549Z,1.70
2023-02-27T08:51:39.160Z,1.60
2023-02-27T08:54:08.821Z,1.63
2023-02-27T08:56:38.300Z,1.53
2023-02-27T08:59:07.890Z,1.57
2023-02-27T09:01:39.996Z,1.80
2023-02-27T09:04:13.042Z,1.50
2023-02-27T09:06:42.615Z,1.70
2023-02-27T09:09:12.098Z,1.37
2023-02-27T09:11:42.047Z,1.50
2023-02-27T09:14:11.529Z,1.70
2023-02-27T09:16:43.703Z,1.87
2023-02-27T09:19:14.650Z,1.43
2023-02-27T09:21:44.484Z,1.43
2023-02-27T09:24:20.328Z,1.47
2023-02-27T09:26:50.550Z,1.60
2023-02-27T09:29:21.419Z,1.80
2023-02-27T09:31:53.699Z,1.73
2023-02-27T09:34:23.440Z,1.40
2023-02-27T09:36:53.059Z,1.63
2023-02-27T09:39:22.591Z,1.33
2023-02-27T09:41:55.659Z,1.10
2023-02-27T09:44:44.864Z,1.00
2023-02-27T09:47:19.182Z,1.47
2023-02-27T09:50:03.402Z,1.70
2023-02-27T09:52:34.138Z,1.33
2023-02-27T09:55:04.341Z,1.33
2023-02-27T09:57:46.920Z,1.13
2023-02-27T10:00:27.502Z,1.40
2023-02-27T10:03:02.388Z,1.23
2023-02-27T10:05:38.127Z,1.20
2023-02-27T10:08:13.248Z,1.20
2023-02-27T10:10:46.565Z,1.30
2023-02-27T10:13:28.474Z,1.10
2023-02-27T10:15:58.253Z,1.27
2023-02-27T10:18:32.520Z,1.27
2023-02-27T10:21:03.424Z,1.30
2023-02-27T10:23:36.679Z,1.47
2023-02-27T10:26:06.902Z,1.03
2023-02-27T10:28:36.643Z,0.97
2023-02-27T10:31:14.724Z,0.93
2023-02-27T10:33:48.217Z,1.03
2023-02-27T10:36:32.649Z,1.33
2023-02-27T10:39:04.590Z,1.13
2023-02-27T10:41:34.205Z,1.30
2023-02-27T10:44:03.719Z,1.00
2023-02-27T10:46:34.750Z,1.03
2023-02-27T10:49:15.315Z,1.00
2023-02-27T10:51:47.170Z,1.10
2023-02-27T10:54:18.220Z,1.48
2023-02-27T10:56:48.990Z,1.17
2023-02-27T10:59:23.120Z,0.93
2023-02-27T11:01:54.545Z,1.33
2023-02-27T11:04:32.336Z,0.70
2023-02-27T11:07:03.097Z,1.10
2023-02-27T11:09:34.608Z,0.85
2023-02-27T11:12:14.545Z,1.40
2023-02-27T11:14:51.748Z,0.77
2023-02-27T11:17:26.018Z,0.77
2023-02-27T11:19:58.385Z,1.42
2023-02-27T11:22:31.394Z,0.73
2023-02-27T11:25:20.909Z,0.88
2023-02-27T11:27:52.313Z,1.10
2023-02-27T11:30:32.178Z,1.00
2023-02-27T11:33:03.712Z,1.02
2023-02-27T11:35:36.662Z,1.17
2023-02-27T11:38:08.460Z,0.93
2023-02-27T11:40:40.241Z,0.95
2023-02-27T11:43:18.069Z,1.05
2023-02-27T11:46:13.206Z,0.80
2023-02-27T11:48:43.311Z,1.10
2023-02-27T11:51:26.071Z,0.95
2023-02-27T11:54:04.725Z,0.82
2023-02-27T11:56:36.832Z,0.93
2023-02-27T11:59:07.919Z,0.93
2023-02-27T12:01:40.836Z,0.90
2023-02-27T12:04:13.809Z,1.08
2023-02-27T12:06:49.727Z,1.10
2023-02-27T12:09:27.662Z,1.00
2023-02-27T12:11:58.232Z,0.70
2023-02-27T12:14:29.815Z,1.27
2023-02-27T12:17:02.058Z,0.73
2023-02-27T12:19:33.621Z,0.93
2023-02-27T12:22:07.181Z,0.93
2023-02-27T12:24:39.712Z,1.13
2023-02-27T12:27:13.180Z,0.90
2023-02-27T12:29:44.384Z,0.88
2023-02-27T12:32:17.085Z,0.70
2023-02-27T12:34:49.302Z,0.90
2023-02-27T12:37:24.745Z,0.77
2023-02-27T12:39:55.322Z,1.02
2023-02-27T12:42:39.814Z,0.98
2023-02-27T12:45:20.825Z,0.95
2023-02-27T12:47:53.955Z,1.10
2023-02-27T12:50:24.567Z,0.60
2023-02-27T12:53:02.145Z,0.85
2023-02-27T12:55:33.753Z,0.90
2023-02-27T12:58:24.426Z,0.90
2023-02-27T13:00:59.963Z,0.77
2023-02-27T13:03:31.701Z,0.80
2023-02-27T13:06:03.544Z,0.88
2023-02-27T13:08:43.416Z,0.55
2023-02-27T13:11:21.796Z,0.60
2023-02-27T13:13:52.702Z,0.80
2023-02-27T13:16:24.526Z,1.00
2023-02-27T13:18:56.993Z,0.68
2023-02-27T13:21:30.725Z,0.60
2023-02-27T13:24:07.324Z,0.50
2023-02-27T13:26:39.393Z,0.60
2023-02-27T13:29:09.429Z,0.70
2023-02-27T13:31:43.120Z,0.45
2023-02-27T13:34:18.974Z,0.68
2023-02-27T13:36:50.115Z,0.55
2023-02-27T13:39:34.422Z,0.75
2023-02-27T13:42:06.661Z,0.50
2023-02-27T13:44:45.065Z,0.90
2023-02-27T13:47:29.759Z,0.43
2023-02-27T13:49:59.858Z,0.52
2023-02-27T13:52:31.640Z,0.70
2023-02-27T13:55:11.269Z,0.50
2023-02-27T13:57:44.145Z,0.40
2023-02-27T14:00:21.576Z,0.55
2023-02-27T14:02:59.868Z,0.47
2023-02-27T14:05:35.654Z,1.00
2023-02-27T14:08:11.143Z,1.50
2023-02-27T14:10:41.990Z,1.20
2023-02-27T14:13:26.351Z,1.00
2023-02-27T14:16:01.942Z,1.23
2023-02-27T14:18:49.488Z,1.70
2023-02-27T14:21:33.787Z,1.10
2023-02-27T14:24:03.391Z,1.08
2023-02-27T14:26:33.197Z,1.13
2023-02-27T14:29:02.797Z,1.13
2023-02-27T14:31:36.964Z,1.58
2023-02-27T14:34:09.195Z,1.30
2023-02-27T14:36:43.175Z,1.05
2023-02-27T14:39:21.438Z,1.00
2023-02-27T14:41:53.927Z,1.47
2023-02-27T14:44:24.080Z,1.40
2023-02-27T14:46:57.127Z,1.00
2023-02-27T14:49:29.220Z,1.20
2023-02-27T14:51:59.123Z,1.23
2023-02-27T14:54:30.186Z,0.82
2023-02-27T14:57:00.414Z,1.13
2023-02-27T14:59:31.248Z,1.23
2023-02-27T15:02:04.748Z,0.90
2023-02-27T15:04:35.179Z,0.85
2023-02-27T15:07:05.867Z,0.55
2023-02-27T15:09:37.616Z,0.50
2023-02-27T15:12:07.656Z,1.10
2023-02-27T15:14:38.228Z,0.98
2023-02-27T15:17:17.606Z,1.13
2023-02-27T15:19:51.120Z,0.90
2023-02-27T15:22:37.613Z,0.98
2023-02-27T15:25:09.287Z,0.70
2023-02-27T15:27:39.966Z,0.80
2023-02-27T15:30:10.849Z,0.98
2023-02-27T15:32:44.695Z,0.73
2023-02-27T15:35:17.875Z,1.02
2023-02-27T15:37:51.599Z,1.10
2023-02-27T15:40:23.207Z,1.10
2023-02-27T15:42:53.183Z,1.02
2023-02-27T15:45:23.747Z,1.48
2023-02-27T15:47:56.015Z,1.00
2023-02-27T15:50:28.416Z,1.08
2023-02-27T15:53:02.228Z,0.68
2023-02-27T15:55:33.653Z,0.98
2023-02-27T15:58:03.951Z,1.38
2023-02-27T16:00:34.540Z,1.05
2023-02-27T16:03:07.976Z,1.08
2023-02-27T16:05:38.859Z,1.15
2023-02-27T16:08:08.582Z,1.00
2023-02-27T16:10:39.016Z,1.20
2023-02-27T16:13:23.691Z,1.33
2023-02-27T16:16:03.837Z,1.08
2023-02-27T16:18:40.421Z,0.90
2023-02-27T16:21:14.665Z,1.13
2023-02-27T16:23:44.816Z,1.40
2023-02-27T16:26:23.878Z,1.57
2023-02-27T16:28:54.860Z,1.20
2023-02-27T16:31:31.624Z,1.30
2023-02-27T16:34:05.155Z,1.07
2023-02-27T16:36:35.278Z,1.27
2023-02-27T16:39:06.249Z,1.27
2023-02-27T16:41:35.881Z,1.30
2023-02-27T16:44:05.424Z,1.50
2023-02-27T16:46:35.025Z,1.47
2023-02-27T16:49:19.564Z,1.33
2023-02-27T16:51:49.830Z,1.43
2023-02-27T16:54:19.506Z,1.30
2023-02-27T16:56:49.545Z,1.50
2023-02-27T16:59:28.615Z,1.20
2023-02-27T17:01:58.291Z,1.73
2023-02-27T17:04:31.047Z,1.20
2023-02-27T17:07:01.345Z,1.70
2023-02-27T17:09:31.136Z,1.60
2023-02-27T17:12:00.721Z,2.03
2023-02-27T17:14:30.316Z,1.90
2023-02-27T17:16:59.928Z,1.33
2023-02-27T17:19:32.245Z,1.97
2023-02-27T17:22:01.802Z,1.90
2023-02-27T17:24:31.686Z,1.80
2023-02-27T17:27:01.394Z,2.00
2023-02-27T17:29:31.586Z,2.07
2023-02-27T17:32:01.232Z,2.27
2023-02-27T17:34:33.534Z,1.97
2023-02-27T17:37:03.185Z,2.40
2023-02-27T17:39:33.570Z,1.90
2023-02-27T17:42:03.211Z,1.97
2023-02-27T17:44:32.800Z,1.77
2023-02-27T17:47:02.335Z,2.50
2023-02-27T17:49:34.524Z,1.80
2023-02-27T17:52:04.137Z,2.57
2023-02-27T17:54:33.645Z,2.47
2023-02-27T17:57:04.962Z,2.20
2023-02-27T17:59:34.602Z,2.70
2023-02-27T18:02:04.129Z,2.10
2023-02-27T18:04:37.197Z,2.47
2023-02-27T18:07:06.830Z,2.63
2023-02-27T18:09:36.371Z,2.57
2023-02-27T18:12:06.112Z,2.93
2023-02-27T18:14:36.453Z,2.33
2023-02-27T18:17:06.953Z,2.40
2023-02-27T18:19:41.727Z,2.87
2023-02-27T18:22:11.562Z,2.23
2023-02-27T18:24:41.296Z,2.90
2023-02-27T18:27:10.921Z,3.53
2023-02-27T18:29:40.481Z,2.97
2023-02-27T18:32:10.948Z,2.20
2023-02-27T18:34:44.547Z,2.73
2023-02-27T18:37:14.116Z,2.80
2023-02-27T18:39:44.309Z,2.63
2023-02-27T18:42:13.908Z,2.63
2023-02-27T18:44:43.536Z,2.93
2023-02-27T18:47:13.194Z,3.27
2023-02-27T18:49:46.170Z,5.30
2023-02-27T18:52:15.811Z,3.03
2023-02-27T18:54:45.477Z,2.97
2023-02-27T18:57:15.575Z,3.50
2023-02-27T18:59:47.583Z,2.73
2023-02-27T19:02:17.788Z,2.47
2023-02-27T19:04:50.651Z,2.77
2023-02-27T19:07:22.468Z,3.10
2023-02-27T19:09:52.083Z,3.00
2023-02-27T19:12:21.811Z,2.40
2023-02-27T19:14:51.672Z,2.23
2023-02-27T19:17:21.193Z,3.27
2023-02-27T19:19:53.557Z,2.20
2023-02-27T19:22:23.353Z,2.57
2023-02-27T19:24:52.929Z,2.60
2023-02-27T19:27:22.524Z,3.00
2023-02-27T19:29:52.061Z,2.53
2023-02-27T19:32:22.663Z,2.50
2023-02-27T19:34:54.824Z,2.93
2023-02-27T19:37:24.635Z,3.07
2023-02-27T19:39:54.178Z,2.60
2023-02-27T19:42:23.760Z,2.60
2023-02-27T19:44:53.430Z,2.97
2023-02-27T19:47:23.012Z,2.97
2023-02-27T19:49:55.253Z,2.50
2023-02-27T19:52:24.888Z,3.00
2023-02-27T19:54:54.461Z,2.50
2023-02-27T19:57:24.690Z,2.87
2023-02-27T19:59:54.304Z,2.77
2023-02-27T20:02:24.445Z,2.60
2023-02-27T20:04:56.557Z,2.90
2023-02-27T20:07:29.074Z,2.73
2023-02-27T20:09:58.920Z,2.90
2023-02-27T20:12:28.903Z,2.43
2023-02-27T20:14:58.474Z,2.70
2023-02-27T20:17:27.987Z,2.30
2023-02-27T20:20:00.200Z,2.23
2023-02-27T20:22:29.842Z,2.70
2023-02-27T20:24:59.364Z,2.47
2023-02-27T20:27:28.990Z,3.20
2023-02-27T20:29:59.162Z,3.27
2023-02-27T20:32:28.851Z,3.23
2023-02-27T20:35:01.419Z,2.50
2023-02-27T20:37:35.504Z,2.40
2023-02-27T20:40:05.140Z,2.60
2023-02-27T20:42:34.737Z,2.70
2023-02-27T20:45:05.495Z,2.83
2023-02-27T20:47:34.979Z,2.40
2023-02-27T20:50:07.446Z,2.90
2023-02-27T20:52:37.049Z,2.63
2023-02-27T20:55:06.907Z,3.00
2023-02-27T20:57:36.499Z,2.97
2023-02-27T21:00:07.422Z,2.83
2023-02-27T21:02:37.029Z,2.80
2023-02-27T21:05:09.934Z,2.60
2023-02-27T21:07:39.628Z,2.60
2023-02-27T21:10:09.657Z,3.03
2023-02-27T21:12:39.200Z,3.10
2023-02-27T21:15:09.360Z,3.50
2023-02-27T21:17:39.098Z,2.47
2023-02-27T21:20:12.183Z,2.73
2023-02-27T21:22:41.783Z,2.60
2023-02-27T21:25:11.589Z,2.73
2023-02-27T21:27:41.185Z,2.87
2023-02-27T21:30:12.249Z,3.13
2023-02-27T21:32:42.448Z,2.90
2023-02-27T21:35:16.385Z,2.50
2023-02-27T21:37:48.120Z,3.10
2023-02-27T21:40:17.889Z,2.80
2023-02-27T21:42:48.852Z,3.40
2023-02-27T21:45:18.531Z,2.97
2023-02-27T21:47:48.525Z,2.70
2023-02-27T21:50:23.101Z,2.87
2023-02-27T21:52:52.805Z,3.57
2023-02-27T21:55:22.799Z,2.77
2023-02-27T21:57:52.379Z,3.63
2023-02-27T22:00:26.539Z,2.90
2023-02-27T22:02:56.198Z,2.90
2023-02-27T22:05:28.362Z,3.10
2023-02-27T22:07:58.044Z,3.03
2023-02-27T22:10:27.527Z,3.30
2023-02-27T22:12:57.094Z,3.63
2023-02-27T22:15:26.660Z,2.90
2023-02-27T22:17:56.227Z,3.37
2023-02-27T22:20:28.433Z,3.17
2023-02-27T22:22:58.983Z,2.77
2023-02-27T22:25:28.713Z,3.33
2023-02-27T22:27:58.272Z,3.10
2023-02-27T22:30:28.002Z,2.97
2023-02-27T22:32:57.905Z,2.70
2023-02-27T22:35:30.126Z,2.80
2023-02-27T22:37:59.975Z,3.00
2023-02-27T22:40:31.821Z,3.20
2023-02-27T22:43:01.644Z,2.43
2023-02-27T22:45:31.111Z,3.20
2023-02-27T22:48:00.720Z,3.10
2023-02-27T22:50:32.869Z,2.90
2023-02-27T22:53:02.504Z,2.93
2023-02-27T22:55:32.476Z,2.50
2023-02-27T22:58:02.032Z,2.73
2023-02-27T23:00:31.547Z,3.23
2023-02-27T23:03:01.088Z,3.40
2023-02-27T23:05:33.258Z,2.47
2023-02-27T23:08:02.924Z,3.17
2023-02-27T23:10:32.443Z,2.33
2023-02-27T23:13:02.008Z,3.37
2023-02-27T23:15:31.651Z,2.80
2023-02-27T23:18:01.462Z,3.00
2023-02-27T23:20:33.711Z,3.50
2023-02-27T23:23:03.388Z,2.83
2023-02-27T23:25:32.894Z,2.73
2023-02-27T23:28:02.488Z,2.90
2023-02-27T23:30:32.030Z,2.67
2023-02-27T23:33:01.579Z,2.27
2023-02-27T23:35:33.795Z,3.20
2023-02-27T23:38:03.517Z,3.07
2023-02-27T23:40:33.539Z,2.80
2023-02-27T23:43:03.099Z,3.00
2023-02-27T23:45:33.739Z,3.33
2023-02-27T23:48:04.430Z,2.77
2023-02-27T23:50:38.041Z,2.67
2023-02-27T23:53:08.142Z,2.57
2023-02-27T23:55:38.952Z,3.40
2023-02-27T23:58:09.531Z,2.77
